createdAt,value
2019-01-15T00:00:11.422Z,1.00
2019-01-15T00:05:20.131Z,0.90
2019-01-15T00:10:27.308Z,0.90
2019-01-15T00:15:35.722Z,1.00
2019-01-15T00:20:42.874Z,1.00
2019-01-15T00:25:50.664Z,0.90
2019-01-15T00:30:57.725Z,0.90
2019-01-15T00:36:04.920Z,0.90
2019-01-15T00:41:12.097Z,0.90
2019-01-15T00:46:19.127Z,0.90
2019-01-15T00:51:26.234Z,0.90
2019-01-15T00:56:33.421Z,0.80
2019-01-15T01:01:40.581Z,0.70
2019-01-15T01:06:47.726Z,0.70
2019-01-15T01:11:55.001Z,0.80
2019-01-15T01:17:02.397Z,0.70
2019-01-15T01:22:09.638Z,0.60
2019-01-15T01:27:16.879Z,0.50
2019-01-15T01:32:24.355Z,0.40
2019-01-15T01:37:31.435Z,0.40
2019-01-15T01:42:38.614Z,0.50
2019-01-15T01:47:45.770Z,0.60
2019-01-15T01:52:52.943Z,0.60
2019-01-15T01:58:00.101Z,0.60
2019-01-15T02:03:07.486Z,0.60
2019-01-15T02:08:14.566Z,0.60
2019-01-15T02:13:21.914Z,0.50
2019-01-15T02:18:28.984Z,0.50
2019-01-15T02:23:36.041Z,0.50
2019-01-15T02:28:43.195Z,0.40
2019-01-15T02:33:50.430Z,0.30
2019-01-15T02:38:57.463Z,0.50
2019-01-15T02:44:05.011Z,0.40
2019-01-15T02:49:12.100Z,0.30
2019-01-15T02:54:19.977Z,0.30
2019-01-15T02:59:27.287Z,0.20
2019-01-15T03:04:34.441Z,0.30
2019-01-15T03:09:41.514Z,0.20
2019-01-15T03:14:48.564Z,0.20
2019-01-15T03:19:55.725Z,0.20
2019-01-15T03:25:02.940Z,0.10
2019-01-15T03:30:14.618Z,0.10
2019-01-15T03:35:22.107Z,0.20
2019-01-15T03:40:29.176Z,0.20
2019-01-15T03:45:36.236Z,0.20
2019-01-15T03:50:43.272Z,0.20
2019-01-15T03:55:50.429Z,0.30
2019-01-15T04:00:57.529Z,0.30
2019-01-15T04:06:06.092Z,0.30
2019-01-15T04:11:13.193Z,0.40
2019-01-15T04:16:21.359Z,0.50
2019-01-15T04:21:28.410Z,0.60
2019-01-15T04:26:35.591Z,0.70
2019-01-15T04:31:42.615Z,0.90
2019-01-15T04:36:49.751Z,0.90
2019-01-15T04:41:58.265Z,1.10
2019-01-15T04:47:05.940Z,1.10
2019-01-15T04:52:13.038Z,1.20
2019-01-15T04:57:20.213Z,1.20
2019-01-15T05:02:27.306Z,1.20
2019-01-15T05:07:35.125Z,1.20
2019-01-15T05:12:42.204Z,1.10
2019-01-15T05:17:49.286Z,1.20
2019-01-15T05:22:56.372Z,1.10
2019-01-15T05:28:03.525Z,1.00
2019-01-15T05:33:10.706Z,1.00
2019-01-15T05:38:17.886Z,0.90
2019-01-15T05:43:26.161Z,1.00
2019-01-15T05:48:37.622Z,1.10
2019-01-15T05:53:44.685Z,1.10
2019-01-15T05:58:52.056Z,1.10
2019-01-15T06:04:02.124Z,1.00
2019-01-15T06:09:11.253Z,1.00
2019-01-15T06:14:18.612Z,1.00
2019-01-15T06:19:25.697Z,1.00
2019-01-15T06:24:32.761Z,0.90
2019-01-15T06:29:39.833Z,0.90
2019-01-15T06:34:47.011Z,0.80
2019-01-15T06:39:54.402Z,0.70
2019-01-15T06:45:01.678Z,0.70
2019-01-15T06:50:09.259Z,0.60
2019-01-15T06:55:18.091Z,0.60
2019-01-15T07:00:28.061Z,0.50
2019-01-15T07:05:35.142Z,0.40
2019-01-15T07:10:42.493Z,0.40
2019-01-15T07:15:51.453Z,0.40
2019-01-15T07:20:59.942Z,0.40
2019-01-15T07:26:07.507Z,0.50
2019-01-15T07:31:14.877Z,0.60
2019-01-15T07:36:22.252Z,0.70
2019-01-15T07:41:29.521Z,0.80
2019-01-15T07:46:36.613Z,0.90
2019-01-15T07:51:43.643Z,1.00
2019-01-15T07:56:51.040Z,1.10
2019-01-15T08:01:59.498Z,1.30
2019-01-15T08:07:07.686Z,1.30
2019-01-15T08:12:15.672Z,1.40
2019-01-15T08:17:22.861Z,1.40
2019-01-15T08:22:30.032Z,1.50
2019-01-15T08:27:37.106Z,1.60
2019-01-15T08:32:44.654Z,1.60
2019-01-15T08:37:52.258Z,1.60
2019-01-15T08:42:59.341Z,1.70
2019-01-15T08:48:10.889Z,1.70
2019-01-15T08:53:20.956Z,1.80
2019-01-15T08:58:30.054Z,1.90
2019-01-15T09:03:37.343Z,2.00
2019-01-15T09:08:45.227Z,2.10
2019-01-15T09:13:52.413Z,2.20
2019-01-15T09:18:59.808Z,2.30
2019-01-15T09:24:07.001Z,2.50
2019-01-15T09:29:14.083Z,2.70
2019-01-15T09:34:21.286Z,2.80
2019-01-15T09:39:28.368Z,2.80
2019-01-15T09:44:35.739Z,2.90
2019-01-15T09:49:42.674Z,3.10
2019-01-15T09:54:49.894Z,3.30
2019-01-15T09:59:57.393Z,3.30
2019-01-15T10:05:04.980Z,3.10
2019-01-15T10:10:12.693Z,3.00
2019-01-15T10:15:20.850Z,3.20
2019-01-15T10:20:28.475Z,3.40
2019-01-15T10:25:36.256Z,3.50
2019-01-15T10:31:33.320Z,3.60
2019-01-15T10:36:38.553Z,3.90
2019-01-15T10:41:45.914Z,4.00
2019-01-15T10:46:52.940Z,4.00
2019-01-15T10:52:00.286Z,3.80
2019-01-15T10:57:07.354Z,3.70
2019-01-15T11:02:14.429Z,3.70
2019-01-15T11:07:23.115Z,3.80
2019-01-15T11:12:31.185Z,4.00
2019-01-15T11:17:38.244Z,4.10
2019-01-15T11:22:46.664Z,3.90
2019-01-15T11:27:53.764Z,3.90
2019-01-15T11:33:07.263Z,4.00
2019-01-15T11:38:15.334Z,4.20
2019-01-15T11:43:23.222Z,4.40
2019-01-15T11:48:30.351Z,4.30
2019-01-15T11:53:38.405Z,4.50
2019-01-15T11:58:46.109Z,5.10
2019-01-15T12:04:07.116Z,6.20
2019-01-15T12:09:32.114Z,9.10
2019-01-15T12:14:57.104Z,11.20
2019-01-15T12:20:29.760Z,12.50
2019-01-15T12:25:56.212Z,15.40
2019-01-15T12:31:37.055Z,16.90
2019-01-15T12:37:02.211Z,17.80
2019-01-15T12:42:34.204Z,19.20
2019-01-15T12:48:19.086Z,19.80
2019-01-15T12:53:37.045Z,21.10
2019-01-15T12:59:10.295Z,19.50
2019-01-15T13:04:33.535Z,19.40
2019-01-15T13:09:57.994Z,17.70
2019-01-15T13:15:38.411Z,14.90
2019-01-15T13:21:03.181Z,12.10
2019-01-15T13:26:28.214Z,9.70
2019-01-15T13:32:03.716Z,7.90
2019-01-15T13:37:32.551Z,6.50
2019-01-15T13:43:12.282Z,5.50
2019-01-15T13:48:53.363Z,4.70
2019-01-15T13:54:22.399Z,4.20
2019-01-15T13:59:43.236Z,3.90
2019-01-15T14:05:07.758Z,3.60
2019-01-15T14:10:33.963Z,3.40
2019-01-15T14:15:52.628Z,3.30
2019-01-15T14:21:34.946Z,3.00
2019-01-15T14:27:01.411Z,3.00
2019-01-15T14:32:23.671Z,2.90
2019-01-15T14:37:53.008Z,2.70
2019-01-15T14:43:17.982Z,2.70
2019-01-15T14:48:43.955Z,2.60
2019-01-15T14:54:12.768Z,2.50
2019-01-15T14:59:38.901Z,2.30
2019-01-15T15:05:15.854Z,2.10
2019-01-15T15:10:38.215Z,2.00
2019-01-15T15:16:04.163Z,1.70
2019-01-15T15:21:30.813Z,1.60
2019-01-15T15:26:47.068Z,1.50
2019-01-15T15:32:11.625Z,1.50
2019-01-15T15:37:43.881Z,1.40
2019-01-15T15:43:03.005Z,1.30
2019-01-15T15:48:27.893Z,1.20
2019-01-15T15:53:53.964Z,1.20
2019-01-15T15:59:19.363Z,1.10
2019-01-15T16:04:40.499Z,1.10
2019-01-15T16:10:17.298Z,1.00
2019-01-15T16:15:34.786Z,1.00
2019-01-15T16:21:09.526Z,1.00
2019-01-15T16:26:26.275Z,0.90
2019-01-15T16:31:52.226Z,0.90
2019-01-15T16:37:21.435Z,0.90
2019-01-15T16:48:43.769Z,0.90
2019-01-15T16:54:13.204Z,1.00
2019-01-15T16:59:37.800Z,1.00
2019-01-15T17:05:03.073Z,1.00
2019-01-15T17:10:29.170Z,1.00
2019-01-15T17:15:55.251Z,1.00
2019-01-15T17:21:27.435Z,1.00
2019-01-15T17:26:53.269Z,1.00
2019-01-15T17:32:29.483Z,1.00
2019-01-15T17:37:56.996Z,1.00
2019-01-15T17:43:31.440Z,1.00
2019-01-15T17:49:04.826Z,1.00
2019-01-15T17:54:29.567Z,1.00
2019-01-15T18:00:01.821Z,1.00
2019-01-15T18:05:31.022Z,1.00
2019-01-15T18:10:57.994Z,1.00
2019-01-15T18:16:25.594Z,1.10
2019-01-15T18:21:46.620Z,1.00
2019-01-15T18:27:16.557Z,1.00
2019-01-15T18:32:42.880Z,1.00
2019-01-15T18:38:00.399Z,1.00
2019-01-15T18:43:28.763Z,1.00
2019-01-15T18:49:05.750Z,1.10
2019-01-15T18:54:44.319Z,1.00
2019-01-15T19:00:14.499Z,1.10
2019-01-15T19:05:48.752Z,1.20
2019-01-15T19:11:27.063Z,1.20
2019-01-15T19:16:50.941Z,1.30
2019-01-15T19:22:38.795Z,1.50
2019-01-15T19:28:02.744Z,1.50
2019-01-15T19:33:44.741Z,1.70
2019-01-15T19:39:10.519Z,1.90
2019-01-15T19:44:37.091Z,2.20
2019-01-15T19:50:06.187Z,2.40
2019-01-15T19:55:37.870Z,2.80
2019-01-15T20:06:49.464Z,3.40
2019-01-15T20:12:25.035Z,3.60
2019-01-15T20:18:01.285Z,3.90
2019-01-15T20:23:28.234Z,4.00
2019-01-15T20:28:48.277Z,4.10
2019-01-15T20:34:23.541Z,4.20
2019-01-15T20:39:49.758Z,4.20
2019-01-15T20:45:07.774Z,4.20
2019-01-15T20:50:37.727Z,4.20
2019-01-15T20:56:07.998Z,4.10
2019-01-15T21:01:34.257Z,4.20
2019-01-15T21:06:59.841Z,4.20
2019-01-15T21:12:35.224Z,4.20
2019-01-15T21:17:58.045Z,4.20
2019-01-15T21:23:24.951Z,4.20
2019-01-15T21:28:43.499Z,4.30
2019-01-15T21:34:16.920Z,4.30
2019-01-15T21:39:46.123Z,4.20
2019-01-15T21:45:25.890Z,4.20
2019-01-15T21:50:51.948Z,4.20
2019-01-15T21:56:11.124Z,4.20
2019-01-15T22:01:39.327Z,4.20
2019-01-15T22:07:11.615Z,4.10
2019-01-15T22:12:43.898Z,4.10
2019-01-15T22:18:19.173Z,4.10
2019-01-15T22:23:57.416Z,4.00
2019-01-15T22:29:24.754Z,3.90
2019-01-15T22:34:54.733Z,3.80
2019-01-15T22:40:19.481Z,3.70
2019-01-15T22:45:38.712Z,3.40
2019-01-15T22:50:56.559Z,3.30
2019-01-15T22:56:34.667Z,3.20
2019-01-15T23:02:19.249Z,3.10
2019-01-15T23:07:44.155Z,3.10
2019-01-15T23:13:00.994Z,3.00
2019-01-15T23:18:33.883Z,2.90
2019-01-15T23:23:56.268Z,2.80
2019-01-15T23:29:23.148Z,2.80
2019-01-15T23:34:41.389Z,2.60
2019-01-15T23:40:06.841Z,2.40
2019-01-15T23:45:32.823Z,2.40
2019-01-15T23:50:55.626Z,2.30
2019-01-15T23:56:23.156Z,2.20
